createdAt,value
2018-01-13T00:01:37.462Z,26.33
2018-01-13T00:04:05.059Z,21.87
2018-01-13T00:06:33.403Z,22.80
2018-01-13T00:09:01.029Z,22.45
2018-01-13T00:11:28.652Z,23.55
2018-01-13T00:13:56.952Z,21.27
2018-01-13T00:16:24.531Z,24.12
2018-01-13T00:18:52.082Z,27.05
2018-01-13T00:21:19.664Z,27.42
2018-01-13T00:23:47.208Z,26.07
2018-01-13T00:26:14.793Z,24.42
2018-01-13T00:28:42.339Z,28.48
2018-01-13T00:31:09.926Z,29.92
2018-01-13T00:33:37.474Z,31.27
2018-01-13T00:36:05.061Z,31.08
2018-01-13T00:38:33.372Z,30.95
2018-01-13T00:41:01.044Z,33.45
2018-01-13T00:43:28.591Z,33.63
2018-01-13T00:45:56.173Z,28.90
2018-01-13T00:48:23.712Z,35.10
2018-01-13T00:50:51.299Z,35.25
2018-01-13T00:53:18.852Z,28.60
2018-01-13T00:55:46.432Z,27.67
2018-01-13T00:58:13.978Z,30.83
2018-01-13T01:00:41.605Z,31.02
2018-01-13T01:03:09.146Z,30.20
2018-01-13T01:05:37.539Z,29.60
2018-01-13T01:08:05.828Z,36.25
2018-01-13T01:10:33.414Z,32.33
2018-01-13T01:13:01.113Z,31.05
2018-01-13T01:15:28.655Z,34.08
2018-01-13T01:17:56.195Z,33.50
2018-01-13T01:20:23.777Z,31.75
2018-01-13T01:22:51.318Z,32.50
2018-01-13T01:25:18.909Z,32.53
2018-01-13T01:27:47.214Z,33.35
2018-01-13T01:30:14.791Z,34.97
2018-01-13T01:32:42.325Z,34.50
2018-01-13T01:35:10.673Z,32.58
2018-01-13T01:37:38.214Z,26.92
2018-01-13T01:40:05.791Z,31.87
2018-01-13T01:42:33.331Z,34.05
2018-01-13T01:45:00.975Z,29.60
2018-01-13T01:47:28.519Z,34.45
2018-01-13T01:49:56.099Z,32.47
2018-01-13T01:52:23.639Z,31.05
2018-01-13T01:54:51.218Z,35.58
2018-01-13T01:57:18.754Z,33.03
2018-01-13T01:59:46.340Z,37.03
2018-01-13T02:02:13.889Z,35.13
2018-01-13T02:04:41.467Z,38.53
2018-01-13T02:07:09.007Z,38.10
2018-01-13T02:09:36.592Z,35.03
2018-01-13T02:12:04.137Z,37.60
2018-01-13T02:14:31.713Z,35.90
2018-01-13T02:16:59.250Z,33.45
2018-01-13T02:19:26.837Z,36.72
2018-01-13T02:21:54.374Z,34.80
2018-01-13T02:24:22.016Z,35.22
2018-01-13T02:26:49.554Z,40.08
2018-01-13T02:29:17.907Z,37.53
2018-01-13T02:31:45.448Z,36.45
2018-01-13T02:34:13.031Z,35.55
2018-01-13T02:36:42.190Z,43.87
2018-01-13T02:39:09.774Z,37.40
2018-01-13T02:41:38.837Z,44.08
2018-01-13T02:44:06.420Z,43.72
2018-01-13T02:46:33.956Z,38.78
2018-01-13T02:49:01.492Z,33.50
2018-01-13T02:51:29.071Z,42.13
2018-01-13T02:53:56.697Z,45.92
2018-01-13T02:56:25.043Z,43.83
2018-01-13T02:58:52.584Z,43.58
2018-01-13T03:01:20.170Z,48.72
2018-01-13T03:03:47.803Z,47.33
2018-01-13T03:06:15.387Z,43.92
2018-01-13T03:08:42.933Z,43.78
2018-01-13T03:11:10.515Z,35.83
2018-01-13T03:13:38.054Z,42.65
2018-01-13T03:16:05.639Z,48.85
2018-01-13T03:18:33.187Z,45.88
2018-01-13T03:21:00.765Z,43.90
2018-01-13T03:23:29.068Z,46.63
2018-01-13T03:25:56.651Z,45.45
2018-01-13T03:28:24.201Z,47.50
2018-01-13T03:30:51.784Z,48.08
2018-01-13T03:33:19.363Z,48.72
2018-01-13T03:35:47.696Z,47.05
2018-01-13T03:38:15.276Z,43.83
2018-01-13T03:40:42.817Z,43.00
2018-01-13T03:43:10.421Z,43.13
2018-01-13T03:45:37.964Z,39.80
2018-01-13T03:48:05.547Z,42.60
2018-01-13T03:50:33.894Z,43.10
2018-01-13T03:53:01.432Z,46.60
2018-01-13T03:55:29.017Z,47.05
2018-01-13T03:57:56.554Z,47.95
2018-01-13T04:00:24.135Z,48.85
2018-01-13T04:02:51.712Z,47.85
2018-01-13T04:05:19.255Z,54.15
2018-01-13T04:07:46.843Z,45.40
2018-01-13T04:10:14.388Z,45.95
2018-01-13T04:12:41.962Z,47.75
2018-01-13T04:15:09.499Z,43.35
2018-01-13T04:17:37.082Z,44.42
2018-01-13T04:20:04.621Z,49.22
2018-01-13T04:22:32.208Z,46.70
2018-01-13T04:24:59.748Z,44.10
2018-01-13T04:27:27.337Z,44.30
2018-01-13T04:29:54.882Z,46.00
2018-01-13T04:32:22.460Z,48.92
2018-01-13T04:34:50.763Z,42.72
2018-01-13T04:37:18.345Z,46.03
2018-01-13T04:39:45.879Z,47.45
2018-01-13T04:42:14.224Z,47.92
2018-01-13T04:44:41.754Z,47.45
2018-01-13T04:47:09.335Z,41.83
2018-01-13T04:49:36.877Z,46.22
2018-01-13T04:52:04.463Z,44.92
2018-01-13T04:54:32.003Z,51.03
2018-01-13T04:56:59.585Z,43.30
2018-01-13T04:59:27.161Z,48.42
2018-01-13T05:01:54.767Z,45.70
2018-01-13T05:04:22.306Z,46.88
2018-01-13T05:06:49.889Z,42.38
2018-01-13T05:09:17.426Z,49.78
2018-01-13T05:11:45.002Z,52.47
2018-01-13T05:14:12.539Z,46.63
2018-01-13T05:16:40.127Z,48.65
2018-01-13T05:19:07.676Z,49.95
2018-01-13T05:21:35.256Z,47.88
2018-01-13T05:24:02.799Z,51.80
2018-01-13T05:26:30.376Z,47.88
2018-01-13T05:28:57.908Z,48.85
2018-01-13T05:31:25.488Z,40.20
2018-01-13T05:33:53.034Z,45.65
2018-01-13T05:36:20.619Z,47.22
2018-01-13T05:38:48.261Z,44.50
2018-01-13T05:41:15.889Z,44.65
2018-01-13T05:43:44.181Z,46.83
2018-01-13T05:46:11.760Z,48.85
2018-01-13T05:48:39.299Z,47.78
2018-01-13T05:51:06.843Z,44.13
2018-01-13T05:53:35.197Z,44.17
2018-01-13T05:56:02.740Z,42.88
2018-01-13T05:58:30.332Z,45.70
2018-01-13T06:00:58.639Z,45.90
2018-01-13T06:03:26.261Z,48.10
2018-01-13T06:05:53.807Z,41.70
2018-01-13T06:08:21.386Z,47.67
2018-01-13T06:10:49.735Z,43.20
2018-01-13T06:13:17.276Z,44.80
2018-01-13T06:15:44.849Z,42.65
2018-01-13T06:18:12.428Z,44.15
2018-01-13T06:20:39.976Z,38.67
2018-01-13T06:23:07.548Z,42.25
2018-01-13T06:25:35.173Z,46.35
2018-01-13T06:28:02.758Z,40.85
2018-01-13T06:30:30.299Z,42.53
2018-01-13T06:32:57.883Z,41.30
2018-01-13T06:35:25.419Z,44.00
2018-01-13T06:37:53.004Z,43.17
2018-01-13T06:40:20.542Z,42.08
2018-01-13T06:42:48.124Z,47.13
2018-01-13T06:45:15.668Z,46.42
2018-01-13T06:47:43.252Z,34.28
2018-01-13T06:50:10.801Z,38.33
2018-01-13T06:52:38.372Z,38.42
2018-01-13T06:55:05.908Z,39.45
2018-01-13T06:57:33.484Z,40.85
2018-01-13T07:00:01.025Z,45.47
2018-01-13T07:02:28.600Z,41.90
2018-01-13T07:04:56.157Z,42.22
2018-01-13T07:07:23.743Z,42.62
2018-01-13T07:09:52.051Z,36.90
2018-01-13T07:12:19.627Z,37.33
2018-01-13T07:14:47.159Z,41.55
2018-01-13T07:19:49.356Z,41.70
2018-01-13T07:22:16.935Z,42.05
2018-01-13T07:24:44.477Z,41.42
2018-01-13T07:27:12.063Z,33.40
2018-01-13T07:29:39.604Z,41.97
2018-01-13T07:32:07.185Z,40.63
2018-01-13T07:34:34.717Z,38.03
2018-01-13T07:37:02.310Z,37.28
2018-01-13T07:39:30.617Z,34.88
2018-01-13T07:41:58.196Z,39.20
2018-01-13T07:44:25.739Z,40.47
2018-01-13T07:46:53.312Z,31.27
2018-01-13T07:49:21.615Z,38.05
2018-01-13T07:51:49.193Z,34.00
2018-01-13T07:54:16.726Z,39.47
2018-01-13T07:56:44.304Z,39.50
2018-01-13T07:59:11.840Z,35.28
2018-01-13T08:01:39.423Z,34.70
2018-01-13T08:04:06.959Z,39.42
2018-01-13T08:06:34.540Z,37.28
2018-01-13T08:09:02.087Z,37.25
2018-01-13T08:11:29.670Z,31.52
2018-01-13T08:13:57.204Z,31.48
2018-01-13T08:16:24.795Z,29.20
2018-01-13T08:18:52.331Z,31.48
2018-01-13T08:21:19.905Z,30.65
2018-01-13T08:23:47.451Z,28.80
2018-01-13T08:26:15.044Z,29.90
2018-01-13T08:28:42.581Z,32.25
2018-01-13T08:31:10.160Z,32.03
2018-01-13T08:33:37.702Z,29.95
2018-01-13T08:36:05.278Z,29.25
2018-01-13T08:38:32.820Z,33.55
2018-01-13T08:41:00.399Z,28.15
2018-01-13T08:43:27.941Z,32.10
2018-01-13T08:45:55.527Z,29.45
2018-01-13T08:48:23.064Z,30.17
2018-01-13T08:50:50.643Z,34.80
2018-01-13T08:53:18.175Z,31.37
2018-01-13T08:55:45.751Z,32.70
2018-01-13T08:58:13.289Z,35.03
2018-01-13T09:00:40.862Z,31.98
2018-01-13T09:03:08.401Z,33.78
2018-01-13T09:05:35.980Z,31.40
2018-01-13T09:08:03.518Z,39.13
2018-01-13T09:10:31.094Z,35.72
2018-01-13T09:12:58.633Z,41.80
2018-01-13T09:15:26.217Z,38.92
2018-01-13T09:17:53.751Z,40.90
2018-01-13T09:20:21.331Z,39.25
2018-01-13T09:22:48.860Z,34.90
2018-01-13T09:25:17.207Z,36.60
2018-01-13T09:27:44.742Z,36.83
2018-01-13T09:30:12.323Z,36.45
2018-01-13T09:32:39.860Z,36.28
2018-01-13T09:35:07.450Z,32.95
2018-01-13T09:37:34.981Z,39.53
2018-01-13T09:40:02.556Z,38.78
2018-01-13T09:42:30.091Z,41.17
2018-01-13T09:44:57.674Z,37.70
2018-01-13T09:47:25.219Z,32.13
2018-01-13T09:49:52.802Z,39.28
2018-01-13T09:52:20.344Z,39.17
2018-01-13T09:54:47.918Z,32.72
2018-01-13T09:57:15.460Z,39.78
2018-01-13T09:59:43.032Z,38.78
2018-01-13T10:02:10.571Z,34.58
2018-01-13T10:04:39.109Z,32.00
2018-01-13T10:07:07.411Z,33.58
2018-01-13T10:09:34.990Z,35.72
2018-01-13T10:12:02.528Z,33.25
2018-01-13T10:14:30.103Z,38.38
2018-01-13T10:16:57.637Z,28.30
2018-01-13T10:19:25.224Z,29.95
2018-01-13T10:21:52.762Z,33.50
2018-01-13T10:24:20.319Z,35.60
2018-01-13T10:26:47.897Z,34.97
2018-01-13T10:29:15.544Z,33.67
2018-01-13T10:31:43.225Z,34.97
2018-01-13T10:34:10.772Z,33.85
2018-01-13T10:36:38.352Z,35.00
2018-01-13T10:39:05.890Z,34.28
2018-01-13T10:41:33.469Z,31.95
2018-01-13T10:44:00.998Z,28.02
2018-01-13T10:46:28.584Z,30.37
2018-01-13T10:48:56.118Z,29.90
2018-01-13T10:51:23.695Z,30.35
2018-01-13T10:53:51.295Z,37.17
2018-01-13T10:56:18.823Z,35.28
2018-01-13T10:58:46.361Z,27.00
2018-01-13T11:01:13.936Z,33.78
2018-01-13T11:03:41.467Z,32.83
2018-01-13T11:06:09.811Z,30.90
2018-01-13T11:08:37.338Z,31.10
2018-01-13T11:11:04.911Z,32.00
2018-01-13T11:13:32.501Z,31.02
2018-01-13T11:16:00.052Z,29.12
2018-01-13T11:18:27.600Z,26.77
2018-01-13T11:20:55.177Z,29.73
2018-01-13T11:23:22.713Z,29.80
2018-01-13T11:25:50.300Z,25.30
2018-01-13T11:28:17.837Z,31.85
2018-01-13T11:30:45.421Z,25.67
2018-01-13T11:33:12.969Z,30.02
2018-01-13T11:35:40.552Z,26.23
2018-01-13T11:38:08.856Z,28.70
2018-01-13T11:40:36.432Z,27.90
2018-01-13T11:43:03.967Z,27.65
2018-01-13T11:45:31.550Z,27.92
2018-01-13T11:47:59.082Z,28.10
2018-01-13T11:50:27.423Z,27.25
2018-01-13T11:52:54.963Z,25.08
2018-01-13T11:55:22.536Z,30.27
2018-01-13T11:57:50.076Z,29.45
2018-01-13T12:00:17.653Z,29.45
2018-01-13T12:02:45.193Z,31.08
2018-01-13T12:05:12.767Z,26.35
2018-01-13T12:07:40.300Z,34.08
2018-01-13T12:10:07.874Z,30.00
2018-01-13T12:12:35.412Z,29.05
2018-01-13T12:15:02.996Z,30.67
2018-01-13T12:17:30.535Z,27.20
2018-01-13T12:19:58.110Z,28.27
2018-01-13T12:22:25.649Z,28.15
2018-01-13T12:24:53.501Z,31.05
2018-01-13T12:27:21.794Z,29.58
2018-01-13T12:29:49.380Z,31.35
2018-01-13T12:32:16.921Z,26.62
2018-01-13T12:34:44.494Z,31.58
2018-01-13T12:37:12.028Z,29.45
2018-01-13T12:39:39.607Z,33.13
2018-01-13T12:42:07.151Z,27.45
2018-01-13T12:44:34.728Z,35.40
2018-01-13T12:47:02.269Z,37.00
2018-01-13T12:49:29.838Z,29.45
2018-01-13T12:51:57.375Z,32.85
2018-01-13T12:54:25.726Z,30.52
2018-01-13T12:56:53.279Z,32.58
2018-01-13T12:59:20.817Z,26.52
2018-01-13T13:01:48.393Z,29.08
2018-01-13T13:04:15.934Z,40.85
2018-01-13T13:06:43.507Z,30.20
2018-01-13T13:09:11.048Z,31.65
2018-01-13T13:11:38.632Z,28.83
2018-01-13T13:14:06.176Z,27.27
2018-01-13T13:16:33.759Z,26.62
2018-01-13T13:19:01.301Z,26.55
2018-01-13T13:21:28.882Z,31.23
2018-01-13T13:23:57.184Z,38.00
2018-01-13T13:26:25.524Z,26.10
2018-01-13T13:28:53.057Z,29.40
2018-01-13T13:31:20.630Z,28.45
2018-01-13T13:33:48.159Z,29.50
2018-01-13T13:36:15.731Z,27.80
2018-01-13T13:38:43.290Z,26.08
2018-01-13T13:41:10.866Z,23.87
2018-01-13T13:43:38.401Z,26.62
2018-01-13T13:46:05.977Z,30.92
2018-01-13T13:48:33.539Z,27.45
2018-01-13T13:51:01.127Z,25.62
2018-01-13T13:53:28.663Z,26.98
2018-01-13T13:55:56.246Z,28.95
2018-01-13T13:58:23.793Z,24.50
2018-01-13T14:00:51.366Z,28.53
2018-01-13T14:03:18.911Z,28.30
2018-01-13T14:05:46.500Z,25.40
2018-01-13T14:08:14.817Z,24.25
2018-01-13T14:10:42.400Z,24.20
2018-01-13T14:13:09.942Z,27.00
2018-01-13T14:15:37.530Z,27.40
2018-01-13T14:18:05.074Z,28.77
2018-01-13T14:20:32.648Z,26.40
2018-01-13T14:23:00.194Z,26.73
2018-01-13T14:25:27.779Z,28.08
2018-01-13T14:27:55.311Z,24.20
2018-01-13T14:30:22.891Z,25.17
2018-01-13T14:32:50.436Z,24.37
2018-01-13T14:35:18.024Z,28.20
2018-01-13T14:37:45.571Z,26.67
2018-01-13T14:40:13.148Z,26.90
2018-01-13T14:42:40.692Z,29.40
2018-01-13T14:45:08.272Z,26.90
2018-01-13T14:47:35.802Z,33.30
2018-01-13T14:50:03.391Z,27.67
2018-01-13T14:52:30.931Z,29.40
2018-01-13T14:54:58.517Z,33.10
2018-01-13T14:57:26.057Z,33.17
2018-01-13T14:59:53.635Z,30.90
2018-01-13T15:02:21.959Z,35.13
2018-01-13T15:04:49.621Z,34.43
2018-01-13T15:07:17.166Z,30.17
2018-01-13T15:09:44.755Z,34.45
2018-01-13T15:12:12.296Z,34.23
2018-01-13T15:14:39.879Z,36.37
2018-01-13T15:17:07.419Z,35.75
2018-01-13T15:19:35.004Z,31.37
2018-01-13T15:22:02.540Z,36.90
2018-01-13T15:24:30.122Z,33.60
2018-01-13T15:26:57.659Z,32.80
2018-01-13T15:29:25.191Z,33.80
2018-01-13T15:31:52.771Z,34.30
2018-01-13T15:34:20.311Z,37.15
2018-01-13T15:36:48.646Z,35.60
2018-01-13T15:39:16.238Z,31.70
2018-01-13T15:41:44.539Z,37.63
2018-01-13T15:44:12.081Z,33.90
2018-01-13T15:46:40.454Z,35.80
2018-01-13T15:49:08.763Z,37.07
2018-01-13T15:51:36.427Z,39.40
2018-01-13T15:54:04.016Z,35.67
2018-01-13T15:56:31.567Z,36.65
2018-01-13T15:58:59.140Z,37.47
2018-01-13T16:01:28.229Z,38.22
2018-01-13T16:03:55.773Z,38.55
2018-01-13T16:06:23.428Z,40.38
2018-01-13T16:08:50.966Z,41.23
2018-01-13T16:11:18.547Z,32.77
2018-01-13T16:13:46.136Z,38.25
2018-01-13T16:16:13.735Z,35.27
2018-01-13T16:18:41.282Z,38.53
2018-01-13T16:21:09.708Z,32.33
2018-01-13T16:23:37.248Z,41.47
2018-01-13T16:26:04.831Z,35.17
2018-01-13T16:28:32.416Z,32.13
2018-01-13T16:31:00.000Z,35.13
2018-01-13T16:33:28.307Z,37.03
2018-01-13T16:35:55.905Z,35.45
2018-01-13T16:38:23.447Z,42.03
2018-01-13T16:40:51.028Z,35.47
2018-01-13T16:43:18.578Z,31.20
2018-01-13T16:45:46.165Z,36.33
2018-01-13T16:48:13.754Z,41.25
2018-01-13T16:50:41.347Z,34.08
2018-01-13T16:53:08.920Z,31.17
2018-01-13T16:55:36.499Z,33.95
2018-01-13T16:58:04.040Z,32.05
2018-01-13T17:00:31.622Z,35.30
2018-01-13T17:02:59.927Z,35.40
2018-01-13T17:05:28.235Z,35.33
2018-01-13T17:07:55.816Z,34.15
2018-01-13T17:10:23.350Z,31.02
2018-01-13T17:12:50.937Z,31.48
2018-01-13T17:15:18.522Z,31.00
2018-01-13T17:17:46.108Z,32.15
2018-01-13T17:20:14.508Z,27.02
2018-01-13T17:22:42.832Z,29.73
2018-01-13T17:25:10.459Z,27.98
2018-01-13T17:27:38.115Z,32.47
2018-01-13T17:30:05.698Z,28.52
2018-01-13T17:32:33.300Z,26.62
2018-01-13T17:35:01.734Z,27.67
2018-01-13T17:37:29.312Z,25.67
2018-01-13T17:39:56.891Z,27.30
2018-01-13T17:42:25.199Z,26.87
2018-01-13T17:44:52.776Z,27.90
2018-01-13T17:47:20.319Z,29.45
2018-01-13T17:49:47.904Z,28.08
2018-01-13T17:52:15.444Z,31.33
2018-01-13T17:54:43.079Z,30.35
2018-01-13T17:57:11.386Z,35.35
2018-01-13T17:59:39.004Z,29.20
2018-01-13T18:02:06.538Z,33.83
2018-01-13T18:04:34.129Z,30.58
2018-01-13T18:07:02.437Z,31.20
2018-01-13T18:09:30.023Z,25.12
2018-01-13T18:11:57.565Z,23.70
2018-01-13T18:14:25.153Z,27.77
2018-01-13T18:16:52.697Z,28.48
2018-01-13T18:19:20.317Z,24.60
2018-01-13T18:21:48.634Z,23.87
2018-01-13T18:24:16.211Z,24.98
2018-01-13T18:26:43.757Z,24.60
2018-01-13T18:29:11.343Z,30.05
2018-01-13T18:31:38.881Z,27.15
2018-01-13T18:34:06.500Z,28.83
2018-01-13T18:36:34.856Z,28.77
2018-01-13T18:39:02.486Z,31.30
2018-01-13T18:41:30.071Z,32.08
2018-01-13T18:43:57.706Z,31.05
2018-01-13T18:46:25.298Z,23.45
2018-01-13T18:48:53.680Z,29.35
2018-01-13T18:51:21.271Z,29.17
2018-01-13T18:53:48.892Z,25.98
2018-01-13T18:56:16.484Z,32.08
2018-01-13T18:58:44.881Z,29.55
2018-01-13T19:01:12.468Z,19.87
2018-01-13T19:03:40.009Z,24.73
2018-01-13T19:06:07.635Z,27.70
2018-01-13T19:08:36.055Z,27.40
2018-01-13T19:11:03.597Z,24.20
2018-01-13T19:13:31.140Z,20.02
2018-01-13T19:15:59.527Z,19.90
2018-01-13T19:18:27.109Z,23.62
2018-01-13T19:20:54.733Z,21.75
2018-01-13T19:23:23.089Z,24.87
2018-01-13T19:25:50.722Z,21.85
2018-01-13T19:28:18.298Z,20.05
2018-01-13T19:30:45.917Z,17.70
2018-01-13T19:33:13.496Z,16.37
2018-01-13T19:35:41.114Z,15.13
2018-01-13T19:38:09.469Z,14.60
2018-01-13T19:40:37.053Z,15.57
2018-01-13T19:43:05.472Z,16.80
2018-01-13T19:45:33.091Z,16.08
2018-01-13T19:48:01.403Z,19.05
2018-01-13T19:50:28.986Z,17.25
2018-01-13T19:52:56.529Z,21.23
2018-01-13T19:55:24.159Z,16.77
2018-01-13T19:57:52.511Z,20.73
2018-01-13T20:00:20.152Z,28.60
2018-01-13T20:02:47.725Z,32.30
2018-01-13T20:05:15.362Z,20.55
2018-01-13T20:07:42.903Z,22.87
2018-01-13T20:10:10.536Z,24.58
2018-01-13T20:12:38.885Z,21.67
2018-01-13T20:15:06.502Z,20.10
2018-01-13T20:17:34.087Z,18.50
2018-01-13T20:20:01.930Z,16.50
2018-01-13T20:22:29.488Z,20.73
2018-01-13T20:24:57.174Z,20.33
2018-01-13T20:27:24.769Z,19.70
2018-01-13T20:29:53.156Z,19.85
2018-01-13T20:32:20.684Z,21.12
2018-01-13T20:34:48.311Z,17.10
2018-01-13T20:37:15.898Z,19.45
2018-01-13T20:39:43.556Z,21.35
2018-01-13T20:42:11.110Z,22.70
2018-01-13T20:44:38.696Z,22.25
2018-01-13T20:47:06.277Z,18.08
2018-01-13T20:49:33.912Z,21.02
2018-01-13T20:52:01.493Z,20.15
2018-01-13T20:54:29.071Z,19.35
2018-01-13T20:56:57.387Z,22.92
2018-01-13T20:59:25.019Z,21.65
2018-01-13T21:01:53.404Z,22.58
2018-01-13T21:04:20.998Z,19.55
2018-01-13T21:06:48.581Z,21.42
2018-01-13T21:09:16.170Z,21.87
2018-01-13T21:11:44.558Z,19.37
2018-01-13T21:14:12.912Z,23.80
2018-01-13T21:16:40.531Z,21.08
2018-01-13T21:19:08.118Z,18.15
2018-01-13T21:21:35.742Z,19.55
2018-01-13T21:24:03.322Z,19.85
2018-01-13T21:26:30.955Z,16.35
2018-01-13T21:28:58.542Z,19.15
2018-01-13T21:31:26.115Z,18.30
2018-01-13T21:33:53.690Z,20.98
2018-01-13T21:36:21.312Z,20.37
2018-01-13T21:38:48.848Z,15.20
2018-01-13T21:41:16.487Z,20.60
2018-01-13T21:43:44.098Z,21.33
2018-01-13T21:46:11.726Z,16.90
2018-01-13T21:48:40.030Z,18.77
2018-01-13T21:51:07.652Z,21.02
2018-01-13T21:53:36.005Z,20.45
2018-01-13T21:56:03.621Z,22.37
2018-01-13T21:58:31.193Z,23.35
2018-01-13T22:00:58.809Z,19.77
2018-01-13T22:03:27.109Z,25.15
2018-01-13T22:08:30.720Z,20.92
2018-01-13T22:10:59.068Z,19.40
2018-01-13T22:13:26.652Z,22.40
2018-01-13T22:15:55.047Z,20.37
2018-01-13T22:18:22.668Z,19.92
2018-01-13T22:20:50.310Z,18.02
2018-01-13T22:23:17.910Z,19.95
2018-01-13T22:25:46.300Z,19.80
2018-01-13T22:28:14.608Z,19.08
2018-01-13T22:30:42.184Z,24.33
2018-01-13T22:33:09.762Z,22.55
2018-01-13T22:35:37.339Z,22.40
2018-01-13T22:38:05.641Z,22.70
2018-01-13T22:40:33.263Z,23.92
2018-01-13T22:43:00.849Z,26.40
2018-01-13T22:45:29.234Z,23.62
2018-01-13T22:47:57.573Z,19.75
2018-01-13T22:50:25.196Z,17.48
2018-01-13T22:52:52.783Z,22.50
2018-01-13T22:55:20.321Z,21.92
2018-01-13T22:57:47.909Z,23.58
2018-01-13T23:00:15.528Z,17.15
2018-01-13T23:02:43.117Z,23.77
2018-01-13T23:05:10.707Z,22.90
2018-01-13T23:07:38.327Z,21.90
2018-01-13T23:10:05.962Z,23.10
2018-01-13T23:12:34.262Z,22.35
2018-01-13T23:15:01.838Z,22.05
2018-01-13T23:17:29.464Z,23.48
2018-01-13T23:19:56.994Z,25.48
2018-01-13T23:22:24.530Z,21.85
2018-01-13T23:24:52.141Z,28.30
2018-01-13T23:27:22.592Z,28.40
2018-01-13T23:29:50.209Z,25.85
2018-01-13T23:32:18.557Z,32.08
2018-01-13T23:34:46.129Z,28.73
2018-01-13T23:37:13.664Z,24.10
2018-01-13T23:39:41.267Z,23.42
2018-01-13T23:42:09.649Z,31.17
2018-01-13T23:44:37.951Z,24.92
2018-01-13T23:47:05.558Z,28.67
2018-01-13T23:49:33.145Z,28.48
2018-01-13T23:52:01.493Z,25.92
2018-01-13T23:54:29.077Z,27.85
2018-01-13T23:56:56.650Z,27.33
2018-01-13T23:59:24.983Z,28.75
